sensor_id;sensor_type;location;lat;lon;timestamp;P1;durP1;ratioP1;P2;durP2;ratioP2
10248;SDS011;5169;50.560;9.714;2023-03-03T00:00:25;21.00;;;14.30;;
10248;SDS011;5169;50.560;9.714;2023-03-03T00:02:51;24.93;;;15.47;;
10248;SDS011;5169;50.560;9.714;2023-03-03T00:05:20;26.27;;;16.53;;
10248;SDS011;5169;50.560;9.714;2023-03-03T00:07:46;23.50;;;14.90;;
10248;SDS011;5169;50.560;9.714;2023-03-03T00:10:13;24.70;;;15.60;;
10248;SDS011;5169;50.560;9.714;2023-03-03T00:12:49;26.07;;;16.10;;
10248;SDS011;5169;50.560;9.714;2023-03-03T00:15:23;28.27;;;16.73;;
10248;SDS011;5169;50.560;9.714;2023-03-03T00:17:50;24.13;;;16.73;;
10248;SDS011;5169;50.560;9.714;2023-03-03T00:25:45;25.70;;;17.00;;
10248;SDS011;5169;50.560;9.714;2023-03-03T00:28:23;24.93;;;16.20;;
10248;SDS011;5169;50.560;9.714;2023-03-03T00:31:15;25.93;;;16.97;;
10248;SDS011;5169;50.560;9.714;2023-03-03T00:33:50;27.10;;;17.93;;
10248;SDS011;5169;50.560;9.714;2023-03-03T00:41:51;25.63;;;17.17;;
10248;SDS011;5169;50.560;9.714;2023-03-03T00:44:30;29.27;;;18.50;;
10248;SDS011;5169;50.560;9.714;2023-03-03T00:47:11;28.90;;;18.27;;
10248;SDS011;5169;50.560;9.714;2023-03-03T00:52:44;27.57;;;17.83;;
10248;SDS011;5169;50.560;9.714;2023-03-03T00:55:26;30.47;;;18.70;;
10248;SDS011;5169;50.560;9.714;2023-03-03T00:57:58;29.70;;;18.57;;
10248;SDS011;5169;50.560;9.714;2023-03-03T01:00:27;26.67;;;17.40;;
10248;SDS011;5169;50.560;9.714;2023-03-03T01:02:53;28.27;;;18.63;;
10248;SDS011;5169;50.560;9.714;2023-03-03T01:05:25;33.10;;;18.67;;
10248;SDS011;5169;50.560;9.714;2023-03-03T01:07:58;29.07;;;19.00;;
10248;SDS011;5169;50.560;9.714;2023-03-03T01:10:25;31.57;;;19.40;;
10248;SDS011;5169;50.560;9.714;2023-03-03T01:12:52;30.07;;;18.90;;
10248;SDS011;5169;50.560;9.714;2023-03-03T01:15:26;29.77;;;19.47;;
10248;SDS011;5169;50.560;9.714;2023-03-03T01:17:54;32.13;;;19.63;;
10248;SDS011;5169;50.560;9.714;2023-03-03T01:20:26;32.37;;;19.70;;
10248;SDS011;5169;50.560;9.714;2023-03-03T01:22:54;29.40;;;19.07;;
10248;SDS011;5169;50.560;9.714;2023-03-03T01:25:26;31.27;;;18.77;;
10248;SDS011;5169;50.560;9.714;2023-03-03T01:27:52;33.80;;;20.40;;
10248;SDS011;5169;50.560;9.714;2023-03-03T01:30:19;29.70;;;19.27;;
10248;SDS011;5169;50.560;9.714;2023-03-03T01:32:45;32.03;;;19.27;;
10248;SDS011;5169;50.560;9.714;2023-03-03T01:35:18;31.43;;;20.37;;
10248;SDS011;5169;50.560;9.714;2023-03-03T01:37:47;33.00;;;19.93;;
10248;SDS011;5169;50.560;9.714;2023-03-03T01:40:23;30.80;;;19.43;;
10248;SDS011;5169;50.560;9.714;2023-03-03T01:42:52;30.13;;;19.60;;
10248;SDS011;5169;50.560;9.714;2023-03-03T01:48:09;33.93;;;19.93;;
10248;SDS011;5169;50.560;9.714;2023-03-03T01:50:56;36.87;;;20.93;;
10248;SDS011;5169;50.560;9.714;2023-03-03T01:53:42;39.33;;;21.37;;
10248;SDS011;5169;50.560;9.714;2023-03-03T01:56:18;31.87;;;20.03;;
10248;SDS011;5169;50.560;9.714;2023-03-03T02:01:19;35.73;;;22.33;;
10248;SDS011;5169;50.560;9.714;2023-03-03T02:03:51;37.07;;;21.43;;
10248;SDS011;5169;50.560;9.714;2023-03-03T02:06:23;35.43;;;22.03;;
10248;SDS011;5169;50.560;9.714;2023-03-03T02:08:58;37.13;;;22.67;;
10248;SDS011;5169;50.560;9.714;2023-03-03T02:11:29;37.50;;;22.67;;
10248;SDS011;5169;50.560;9.714;2023-03-03T02:13:57;36.40;;;21.10;;
10248;SDS011;5169;50.560;9.714;2023-03-03T02:16:22;36.40;;;22.03;;
10248;SDS011;5169;50.560;9.714;2023-03-03T02:18:51;37.27;;;21.93;;
10248;SDS011;5169;50.560;9.714;2023-03-03T02:21:20;36.83;;;21.77;;
10248;SDS011;5169;50.560;9.714;2023-03-03T02:24:08;33.63;;;20.93;;
10248;SDS011;5169;50.560;9.714;2023-03-03T02:26:57;38.80;;;22.80;;
10248;SDS011;5169;50.560;9.714;2023-03-03T02:29:31;38.43;;;21.87;;
10248;SDS011;5169;50.560;9.714;2023-03-03T02:31:56;37.60;;;21.40;;
10248;SDS011;5169;50.560;9.714;2023-03-03T02:34:22;34.97;;;21.17;;
10248;SDS011;5169;50.560;9.714;2023-03-03T02:36:52;37.77;;;21.97;;
10248;SDS011;5169;50.560;9.714;2023-03-03T02:39:19;34.53;;;21.33;;
10248;SDS011;5169;50.560;9.714;2023-03-03T02:42:05;34.43;;;21.20;;
10248;SDS011;5169;50.560;9.714;2023-03-03T02:44:51;39.03;;;21.90;;
10248;SDS011;5169;50.560;9.714;2023-03-03T02:47:19;36.23;;;21.40;;
10248;SDS011;5169;50.560;9.714;2023-03-03T02:49:45;42.20;;;21.90;;
10248;SDS011;5169;50.560;9.714;2023-03-03T02:52:11;35.87;;;22.60;;
10248;SDS011;5169;50.560;9.714;2023-03-03T02:54:38;38.73;;;21.77;;
10248;SDS011;5169;50.560;9.714;2023-03-03T02:57:08;38.93;;;22.80;;
10248;SDS011;5169;50.560;9.714;2023-03-03T02:59:36;39.07;;;21.73;;
10248;SDS011;5169;50.560;9.714;2023-03-03T03:02:08;38.40;;;22.43;;
10248;SDS011;5169;50.560;9.714;2023-03-03T03:04:34;39.80;;;21.77;;
10248;SDS011;5169;50.560;9.714;2023-03-03T03:07:00;40.00;;;21.40;;
10248;SDS011;5169;50.560;9.714;2023-03-03T03:09:26;35.63;;;21.90;;
10248;SDS011;5169;50.560;9.714;2023-03-03T03:11:57;35.90;;;21.13;;
10248;SDS011;5169;50.560;9.714;2023-03-03T03:14:26;34.53;;;20.70;;
10248;SDS011;5169;50.560;9.714;2023-03-03T03:16:58;37.50;;;22.43;;
10248;SDS011;5169;50.560;9.714;2023-03-03T03:19:26;35.50;;;20.57;;
10248;SDS011;5169;50.560;9.714;2023-03-03T03:21:55;35.47;;;20.20;;
10248;SDS011;5169;50.560;9.714;2023-03-03T03:24:21;38.57;;;21.33;;
10248;SDS011;5169;50.560;9.714;2023-03-03T03:26:47;37.17;;;20.30;;
10248;SDS011;5169;50.560;9.714;2023-03-03T03:29:12;37.97;;;21.33;;
10248;SDS011;5169;50.560;9.714;2023-03-03T03:31:38;32.03;;;20.30;;
10248;SDS011;5169;50.560;9.714;2023-03-03T03:34:04;34.00;;;19.90;;
10248;SDS011;5169;50.560;9.714;2023-03-03T03:36:30;37.57;;;20.73;;
10248;SDS011;5169;50.560;9.714;2023-03-03T03:38:55;32.70;;;20.07;;
10248;SDS011;5169;50.560;9.714;2023-03-03T03:41:21;30.73;;;19.70;;
10248;SDS011;5169;50.560;9.714;2023-03-03T03:43:52;36.37;;;19.80;;
10248;SDS011;5169;50.560;9.714;2023-03-03T03:46:18;35.83;;;19.97;;
10248;SDS011;5169;50.560;9.714;2023-03-03T03:48:44;34.03;;;21.03;;
10248;SDS011;5169;50.560;9.714;2023-03-03T03:51:10;35.87;;;21.27;;
10248;SDS011;5169;50.560;9.714;2023-03-03T03:53:44;35.10;;;19.53;;
10248;SDS011;5169;50.560;9.714;2023-03-03T03:56:12;35.13;;;20.30;;
10248;SDS011;5169;50.560;9.714;2023-03-03T03:58:39;32.53;;;20.27;;
10248;SDS011;5169;50.560;9.714;2023-03-03T04:01:08;35.37;;;20.67;;
10248;SDS011;5169;50.560;9.714;2023-03-03T04:03:34;34.50;;;19.47;;
10248;SDS011;5169;50.560;9.714;2023-03-03T04:06:02;35.53;;;20.30;;
10248;SDS011;5169;50.560;9.714;2023-03-03T04:08:28;35.43;;;20.80;;
10248;SDS011;5169;50.560;9.714;2023-03-03T04:10:53;36.83;;;20.87;;
10248;SDS011;5169;50.560;9.714;2023-03-03T04:13:19;36.07;;;19.97;;
10248;SDS011;5169;50.560;9.714;2023-03-03T04:15:45;36.10;;;21.33;;
10248;SDS011;5169;50.560;9.714;2023-03-03T04:18:16;33.73;;;20.93;;
10248;SDS011;5169;50.560;9.714;2023-03-03T04:20:48;32.40;;;19.97;;
10248;SDS011;5169;50.560;9.714;2023-03-03T04:23:16;34.03;;;19.67;;
10248;SDS011;5169;50.560;9.714;2023-03-03T04:25:42;32.33;;;20.20;;
10248;SDS011;5169;50.560;9.714;2023-03-03T04:28:16;33.17;;;20.07;;
10248;SDS011;5169;50.560;9.714;2023-03-03T04:30:48;36.37;;;21.00;;
10248;SDS011;5169;50.560;9.714;2023-03-03T04:33:14;35.00;;;20.57;;
10248;SDS011;5169;50.560;9.714;2023-03-03T04:35:40;34.67;;;19.23;;
10248;SDS011;5169;50.560;9.714;2023-03-03T04:38:05;32.87;;;19.60;;
10248;SDS011;5169;50.560;9.714;2023-03-03T04:40:31;32.67;;;20.53;;
10248;SDS011;5169;50.560;9.714;2023-03-03T04:42:59;34.20;;;19.83;;
10248;SDS011;5169;50.560;9.714;2023-03-03T04:45:25;37.80;;;20.27;;
10248;SDS011;5169;50.560;9.714;2023-03-03T04:47:53;39.47;;;21.53;;
10248;SDS011;5169;50.560;9.714;2023-03-03T04:50:20;39.33;;;21.73;;
10248;SDS011;5169;50.560;9.714;2023-03-03T04:52:46;35.13;;;19.67;;
10248;SDS011;5169;50.560;9.714;2023-03-03T04:55:12;36.50;;;20.50;;
10248;SDS011;5169;50.560;9.714;2023-03-03T04:57:38;35.13;;;20.33;;
10248;SDS011;5169;50.560;9.714;2023-03-03T05:00:08;36.80;;;19.37;;
10248;SDS011;5169;50.560;9.714;2023-03-03T05:02:37;34.63;;;19.77;;
10248;SDS011;5169;50.560;9.714;2023-03-03T05:05:08;35.87;;;19.27;;
10248;SDS011;5169;50.560;9.714;2023-03-03T05:07:34;37.10;;;19.97;;
10248;SDS011;5169;50.560;9.714;2023-03-03T05:10:00;36.77;;;19.83;;
10248;SDS011;5169;50.560;9.714;2023-03-03T05:12:28;38.33;;;20.40;;
10248;SDS011;5169;50.560;9.714;2023-03-03T05:15:02;39.47;;;20.90;;
10248;SDS011;5169;50.560;9.714;2023-03-03T05:17:32;34.27;;;20.17;;
10248;SDS011;5169;50.560;9.714;2023-03-03T05:19:58;35.10;;;18.97;;
10248;SDS011;5169;50.560;9.714;2023-03-03T05:22:23;35.27;;;18.03;;
10248;SDS011;5169;50.560;9.714;2023-03-03T05:24:52;34.20;;;20.03;;
10248;SDS011;5169;50.560;9.714;2023-03-03T05:27:20;36.77;;;19.83;;
10248;SDS011;5169;50.560;9.714;2023-03-03T05:29:51;33.57;;;19.33;;
10248;SDS011;5169;50.560;9.714;2023-03-03T05:32:17;32.00;;;18.60;;
10248;SDS011;5169;50.560;9.714;2023-03-03T05:34:45;34.17;;;18.27;;
10248;SDS011;5169;50.560;9.714;2023-03-03T05:37:16;33.90;;;18.60;;
10248;SDS011;5169;50.560;9.714;2023-03-03T05:39:42;36.53;;;19.57;;
10248;SDS011;5169;50.560;9.714;2023-03-03T05:42:10;31.20;;;17.10;;
10248;SDS011;5169;50.560;9.714;2023-03-03T05:44:40;34.53;;;18.30;;
10248;SDS011;5169;50.560;9.714;2023-03-03T05:47:06;35.17;;;19.30;;
10248;SDS011;5169;50.560;9.714;2023-03-03T05:49:34;37.07;;;19.87;;
10248;SDS011;5169;50.560;9.714;2023-03-03T05:52:00;36.73;;;19.37;;
10248;SDS011;5169;50.560;9.714;2023-03-03T05:54:26;35.07;;;18.87;;
10248;SDS011;5169;50.560;9.714;2023-03-03T06:00:58;33.63;;;17.67;;
10248;SDS011;5169;50.560;9.714;2023-03-03T06:03:23;32.83;;;18.17;;
10248;SDS011;5169;50.560;9.714;2023-03-03T06:05:55;34.40;;;19.00;;
10248;SDS011;5169;50.560;9.714;2023-03-03T06:08:21;34.10;;;18.37;;
10248;SDS011;5169;50.560;9.714;2023-03-03T06:10:47;28.27;;;15.43;;
10248;SDS011;5169;50.560;9.714;2023-03-03T06:13:19;27.77;;;16.33;;
10248;SDS011;5169;50.560;9.714;2023-03-03T06:15:45;28.60;;;15.97;;
10248;SDS011;5169;50.560;9.714;2023-03-03T06:18:10;28.43;;;15.77;;
10248;SDS011;5169;50.560;9.714;2023-03-03T06:20:36;28.10;;;15.87;;
10248;SDS011;5169;50.560;9.714;2023-03-03T06:23:04;27.00;;;15.13;;
10248;SDS011;5169;50.560;9.714;2023-03-03T06:25:30;30.70;;;16.77;;
10248;SDS011;5169;50.560;9.714;2023-03-03T06:27:56;28.43;;;16.73;;
10248;SDS011;5169;50.560;9.714;2023-03-03T06:30:23;30.50;;;16.23;;
10248;SDS011;5169;50.560;9.714;2023-03-03T06:32:56;29.33;;;15.83;;
10248;SDS011;5169;50.560;9.714;2023-03-03T06:35:22;27.00;;;16.13;;
10248;SDS011;5169;50.560;9.714;2023-03-03T06:37:48;26.37;;;15.67;;
10248;SDS011;5169;50.560;9.714;2023-03-03T06:40:14;27.83;;;16.40;;
10248;SDS011;5169;50.560;9.714;2023-03-03T06:42:40;25.97;;;14.93;;
10248;SDS011;5169;50.560;9.714;2023-03-03T06:45:15;27.33;;;16.10;;
10248;SDS011;5169;50.560;9.714;2023-03-03T06:47:40;28.33;;;15.97;;
10248;SDS011;5169;50.560;9.714;2023-03-03T06:50:10;26.63;;;15.40;;
10248;SDS011;5169;50.560;9.714;2023-03-03T06:52:37;25.57;;;14.93;;
10248;SDS011;5169;50.560;9.714;2023-03-03T06:55:09;27.50;;;14.40;;
10248;SDS011;5169;50.560;9.714;2023-03-03T06:57:39;25.00;;;14.43;;
10248;SDS011;5169;50.560;9.714;2023-03-03T07:00:16;23.77;;;14.20;;
10248;SDS011;5169;50.560;9.714;2023-03-03T07:02:51;26.43;;;14.27;;
10248;SDS011;5169;50.560;9.714;2023-03-03T07:05:22;26.60;;;14.73;;
10248;SDS011;5169;50.560;9.714;2023-03-03T07:07:53;24.00;;;14.23;;
10248;SDS011;5169;50.560;9.714;2023-03-03T07:10:24;28.80;;;15.07;;
10248;SDS011;5169;50.560;9.714;2023-03-03T07:12:51;30.07;;;16.13;;
10248;SDS011;5169;50.560;9.714;2023-03-03T07:15:52;26.97;;;15.97;;
10248;SDS011;5169;50.560;9.714;2023-03-03T07:21:18;28.17;;;15.63;;
10248;SDS011;5169;50.560;9.714;2023-03-03T07:23:57;28.53;;;16.07;;
10248;SDS011;5169;50.560;9.714;2023-03-03T07:28:59;28.40;;;15.47;;
10248;SDS011;5169;50.560;9.714;2023-03-03T07:34:09;27.60;;;14.37;;
10248;SDS011;5169;50.560;9.714;2023-03-03T07:37:01;19.43;;;12.27;;
10248;SDS011;5169;50.560;9.714;2023-03-03T07:39:35;20.57;;;11.97;;
10248;SDS011;5169;50.560;9.714;2023-03-03T07:45:02;26.07;;;14.23;;
10248;SDS011;5169;50.560;9.714;2023-03-03T07:47:54;23.57;;;13.13;;
10248;SDS011;5169;50.560;9.714;2023-03-03T07:50:41;22.07;;;11.77;;
10248;SDS011;5169;50.560;9.714;2023-03-03T07:53:26;21.10;;;11.00;;
10248;SDS011;5169;50.560;9.714;2023-03-03T07:55:58;21.60;;;12.97;;
10248;SDS011;5169;50.560;9.714;2023-03-03T07:58:37;24.47;;;13.77;;
10248;SDS011;5169;50.560;9.714;2023-03-03T08:03:54;22.10;;;12.47;;
10248;SDS011;5169;50.560;9.714;2023-03-03T08:14:39;14.47;;;8.70;;
10248;SDS011;5169;50.560;9.714;2023-03-03T08:17:24;15.60;;;9.27;;
10248;SDS011;5169;50.560;9.714;2023-03-03T08:20:01;14.83;;;8.63;;
10248;SDS011;5169;50.560;9.714;2023-03-03T08:22:51;12.40;;;7.77;;
10248;SDS011;5169;50.560;9.714;2023-03-03T08:25:17;14.23;;;9.20;;
10248;SDS011;5169;50.560;9.714;2023-03-03T08:27:43;14.77;;;9.00;;
10248;SDS011;5169;50.560;9.714;2023-03-03T08:30:17;14.47;;;9.07;;
10248;SDS011;5169;50.560;9.714;2023-03-03T08:32:42;16.30;;;9.57;;
10248;SDS011;5169;50.560;9.714;2023-03-03T08:35:15;15.57;;;8.90;;
10248;SDS011;5169;50.560;9.714;2023-03-03T08:37:49;17.00;;;10.10;;
10248;SDS011;5169;50.560;9.714;2023-03-03T08:40:15;15.37;;;9.23;;
10248;SDS011;5169;50.560;9.714;2023-03-03T08:42:41;14.73;;;8.83;;
10248;SDS011;5169;50.560;9.714;2023-03-03T08:45:06;18.70;;;10.80;;
10248;SDS011;5169;50.560;9.714;2023-03-03T08:47:41;17.77;;;11.73;;
10248;SDS011;5169;50.560;9.714;2023-03-03T08:50:12;18.80;;;11.63;;
10248;SDS011;5169;50.560;9.714;2023-03-03T08:52:38;19.87;;;10.67;;
10248;SDS011;5169;50.560;9.714;2023-03-03T08:55:06;20.27;;;11.67;;
10248;SDS011;5169;50.560;9.714;2023-03-03T08:57:39;22.67;;;13.20;;
10248;SDS011;5169;50.560;9.714;2023-03-03T09:00:06;20.67;;;12.00;;
10248;SDS011;5169;50.560;9.714;2023-03-03T09:02:38;16.60;;;10.00;;
10248;SDS011;5169;50.560;9.714;2023-03-03T09:05:06;15.33;;;9.17;;
10248;SDS011;5169;50.560;9.714;2023-03-03T09:07:38;13.53;;;8.47;;
10248;SDS011;5169;50.560;9.714;2023-03-03T09:10:05;15.70;;;9.00;;
10248;SDS011;5169;50.560;9.714;2023-03-03T09:12:39;15.43;;;8.40;;
10248;SDS011;5169;50.560;9.714;2023-03-03T09:15:20;19.00;;;10.47;;
10248;SDS011;5169;50.560;9.714;2023-03-03T09:17:56;18.00;;;10.60;;
10248;SDS011;5169;50.560;9.714;2023-03-03T09:28:41;18.20;;;10.07;;
10248;SDS011;5169;50.560;9.714;2023-03-03T09:31:21;19.03;;;10.43;;
10248;SDS011;5169;50.560;9.714;2023-03-03T09:33:54;18.93;;;11.27;;
10248;SDS011;5169;50.560;9.714;2023-03-03T09:36:37;16.57;;;10.87;;
10248;SDS011;5169;50.560;9.714;2023-03-03T09:39:38;18.63;;;11.13;;
10248;SDS011;5169;50.560;9.714;2023-03-03T10:01:54;18.83;;;10.47;;
10248;SDS011;5169;50.560;9.714;2023-03-03T10:04:51;16.03;;;9.17;;
10248;SDS011;5169;50.560;9.714;2023-03-03T10:22:17;15.83;;;9.87;;
10248;SDS011;5169;50.560;9.714;2023-03-03T10:45:10;15.23;;;9.00;;
10248;SDS011;5169;50.560;9.714;2023-03-03T11:08:00;13.77;;;8.23;;
10248;SDS011;5169;50.560;9.714;2023-03-03T11:28:02;15.67;;;9.60;;
10248;SDS011;5169;50.560;9.714;2023-03-03T11:39:03;13.60;;;8.97;;
10248;SDS011;5169;50.560;9.714;2023-03-03T11:47:05;11.80;;;8.00;;
10248;SDS011;5169;50.560;9.714;2023-03-03T12:09:35;12.43;;;9.37;;
10248;SDS011;5169;50.560;9.714;2023-03-03T12:23:32;14.23;;;9.00;;
10248;SDS011;5169;50.560;9.714;2023-03-03T12:41:42;13.67;;;9.97;;
10248;SDS011;5169;50.560;9.714;2023-03-03T13:01:00;12.63;;;8.73;;
10248;SDS011;5169;50.560;9.714;2023-03-03T13:13:02;10.73;;;7.90;;
10248;SDS011;5169;50.560;9.714;2023-03-03T13:15:57;12.10;;;8.57;;
10248;SDS011;5169;50.560;9.714;2023-03-03T13:18:54;11.73;;;7.70;;
10248;SDS011;5169;50.560;9.714;2023-03-03T13:27:10;10.47;;;7.80;;
10248;SDS011;5169;50.560;9.714;2023-03-03T13:38:25;12.80;;;8.37;;
10248;SDS011;5169;50.560;9.714;2023-03-03T13:44:04;11.47;;;7.57;;
10248;SDS011;5169;50.560;9.714;2023-03-03T13:49:27;10.80;;;7.17;;
10248;SDS011;5169;50.560;9.714;2023-03-03T13:52:01;12.17;;;7.30;;
10248;SDS011;5169;50.560;9.714;2023-03-03T14:11:49;10.77;;;6.63;;
10248;SDS011;5169;50.560;9.714;2023-03-03T14:14:27;9.13;;;6.33;;
10248;SDS011;5169;50.560;9.714;2023-03-03T14:25:11;11.40;;;6.93;;
10248;SDS011;5169;50.560;9.714;2023-03-03T14:30:41;10.73;;;5.97;;
10248;SDS011;5169;50.560;9.714;2023-03-03T14:33:20;9.93;;;6.17;;
10248;SDS011;5169;50.560;9.714;2023-03-03T14:36:04;11.83;;;6.33;;
10248;SDS011;5169;50.560;9.714;2023-03-03T14:38:42;8.33;;;5.20;;
10248;SDS011;5169;50.560;9.714;2023-03-03T14:41:18;9.60;;;6.03;;
10248;SDS011;5169;50.560;9.714;2023-03-03T14:49:38;9.37;;;5.80;;
10248;SDS011;5169;50.560;9.714;2023-03-03T14:52:10;7.00;;;5.33;;
10248;SDS011;5169;50.560;9.714;2023-03-03T14:54:52;9.10;;;6.37;;
10248;SDS011;5169;50.560;9.714;2023-03-03T15:03:01;10.00;;;5.97;;
10248;SDS011;5169;50.560;9.714;2023-03-03T15:05:52;9.57;;;6.13;;
10248;SDS011;5169;50.560;9.714;2023-03-03T15:08:30;8.90;;;6.37;;
10248;SDS011;5169;50.560;9.714;2023-03-03T15:13:52;9.73;;;5.87;;
10248;SDS011;5169;50.560;9.714;2023-03-03T15:16:30;8.77;;;6.07;;
10248;SDS011;5169;50.560;9.714;2023-03-03T15:21:30;9.27;;;5.67;;
10248;SDS011;5169;50.560;9.714;2023-03-03T15:32:15;7.60;;;4.70;;
10248;SDS011;5169;50.560;9.714;2023-03-03T15:37:58;8.57;;;5.53;;
10248;SDS011;5169;50.560;9.714;2023-03-03T15:40:48;9.17;;;5.67;;
10248;SDS011;5169;50.560;9.714;2023-03-03T16:03:16;9.43;;;5.13;;
10248;SDS011;5169;50.560;9.714;2023-03-03T16:05:52;8.37;;;5.50;;
10248;SDS011;5169;50.560;9.714;2023-03-03T16:15:13;7.93;;;4.97;;
10248;SDS011;5169;50.560;9.714;2023-03-03T16:31:27;10.43;;;6.83;;
10248;SDS011;5169;50.560;9.714;2023-03-03T16:39:47;9.63;;;6.97;;
10248;SDS011;5169;50.560;9.714;2023-03-03T16:42:29;12.40;;;7.93;;
10248;SDS011;5169;50.560;9.714;2023-03-03T16:59:41;12.40;;;8.27;;
10248;SDS011;5169;50.560;9.714;2023-03-03T17:08:32;8.93;;;5.70;;
10248;SDS011;5169;50.560;9.714;2023-03-03T17:11:07;9.77;;;6.03;;
10248;SDS011;5169;50.560;9.714;2023-03-03T17:16:34;9.60;;;6.47;;
10248;SDS011;5169;50.560;9.714;2023-03-03T17:22:16;12.03;;;6.60;;
10248;SDS011;5169;50.560;9.714;2023-03-03T17:30:29;8.37;;;5.63;;
10248;SDS011;5169;50.560;9.714;2023-03-03T17:44:17;13.50;;;8.70;;
10248;SDS011;5169;50.560;9.714;2023-03-03T17:47:04;11.53;;;7.40;;
10248;SDS011;5169;50.560;9.714;2023-03-03T17:52:45;11.10;;;7.43;;
10248;SDS011;5169;50.560;9.714;2023-03-03T17:55:19;15.23;;;8.10;;
10248;SDS011;5169;50.560;9.714;2023-03-03T17:58:29;10.67;;;6.77;;
10248;SDS011;5169;50.560;9.714;2023-03-03T18:12:41;14.70;;;8.17;;
10248;SDS011;5169;50.560;9.714;2023-03-03T18:20:33;14.80;;;8.00;;
10248;SDS011;5169;50.560;9.714;2023-03-03T18:23:24;11.43;;;7.67;;
10248;SDS011;5169;50.560;9.714;2023-03-03T18:26:02;13.27;;;7.40;;
10248;SDS011;5169;50.560;9.714;2023-03-03T18:28:52;11.83;;;6.63;;
10248;SDS011;5169;50.560;9.714;2023-03-03T18:31:45;10.37;;;7.03;;
10248;SDS011;5169;50.560;9.714;2023-03-03T18:42:33;12.00;;;7.40;;
10248;SDS011;5169;50.560;9.714;2023-03-03T19:00:57;9.13;;;6.37;;
10248;SDS011;5169;50.560;9.714;2023-03-03T19:06:28;9.40;;;6.20;;
10248;SDS011;5169;50.560;9.714;2023-03-03T19:08:57;11.20;;;6.70;;
10248;SDS011;5169;50.560;9.714;2023-03-03T19:11:47;11.20;;;6.67;;
10248;SDS011;5169;50.560;9.714;2023-03-03T19:14:39;9.47;;;6.13;;
10248;SDS011;5169;50.560;9.714;2023-03-03T19:20:10;10.33;;;6.63;;
10248;SDS011;5169;50.560;9.714;2023-03-03T19:23:04;10.83;;;6.83;;
10248;SDS011;5169;50.560;9.714;2023-03-03T19:25:35;11.33;;;6.90;;
10248;SDS011;5169;50.560;9.714;2023-03-03T19:53:35;11.47;;;7.33;;
10248;SDS011;5169;50.560;9.714;2023-03-03T20:14:23;11.83;;;7.40;;
10248;SDS011;5169;50.560;9.714;2023-03-03T20:17:42;12.70;;;7.70;;
10248;SDS011;5169;50.560;9.714;2023-03-03T20:20:02;13.33;;;7.33;;
10248;SDS011;5169;50.560;9.714;2023-03-03T20:22:34;12.83;;;8.27;;
10248;SDS011;5169;50.560;9.714;2023-03-03T20:28:10;13.17;;;7.40;;
10248;SDS011;5169;50.560;9.714;2023-03-03T20:40:18;12.27;;;7.33;;
10248;SDS011;5169;50.560;9.714;2023-03-03T20:51:02;11.67;;;7.30;;
10248;SDS011;5169;50.560;9.714;2023-03-03T21:00:03;12.33;;;7.83;;
10248;SDS011;5169;50.560;9.714;2023-03-03T21:02:46;11.23;;;6.93;;
10248;SDS011;5169;50.560;9.714;2023-03-03T21:05:32;13.93;;;8.10;;
10248;SDS011;5169;50.560;9.714;2023-03-03T21:07:59;13.13;;;7.80;;
10248;SDS011;5169;50.560;9.714;2023-03-03T21:10:33;12.90;;;7.83;;
10248;SDS011;5169;50.560;9.714;2023-03-03T21:16:11;13.70;;;8.60;;
10248;SDS011;5169;50.560;9.714;2023-03-03T21:21:29;12.80;;;8.23;;
10248;SDS011;5169;50.560;9.714;2023-03-03T21:24:18;14.63;;;8.37;;
10248;SDS011;5169;50.560;9.714;2023-03-03T21:26:57;14.00;;;8.40;;
10248;SDS011;5169;50.560;9.714;2023-03-03T21:29:31;13.67;;;8.93;;
10248;SDS011;5169;50.560;9.714;2023-03-03T21:32:05;12.77;;;8.53;;
10248;SDS011;5169;50.560;9.714;2023-03-03T21:34:34;12.07;;;8.00;;
10248;SDS011;5169;50.560;9.714;2023-03-03T21:37:05;14.30;;;8.83;;
10248;SDS011;5169;50.560;9.714;2023-03-03T21:39:41;11.97;;;8.13;;
10248;SDS011;5169;50.560;9.714;2023-03-03T21:42:27;13.10;;;8.13;;
10248;SDS011;5169;50.560;9.714;2023-03-03T21:45:11;13.77;;;8.57;;
10248;SDS011;5169;50.560;9.714;2023-03-03T21:47:44;12.83;;;8.50;;
10248;SDS011;5169;50.560;9.714;2023-03-03T21:50:10;13.50;;;8.73;;
10248;SDS011;5169;50.560;9.714;2023-03-03T21:52:36;15.30;;;8.83;;
10248;SDS011;5169;50.560;9.714;2023-03-03T21:55:05;14.00;;;9.20;;
10248;SDS011;5169;50.560;9.714;2023-03-03T21:57:31;14.13;;;8.67;;
10248;SDS011;5169;50.560;9.714;2023-03-03T21:59:59;12.23;;;8.43;;
10248;SDS011;5169;50.560;9.714;2023-03-03T22:02:29;11.70;;;7.87;;
10248;SDS011;5169;50.560;9.714;2023-03-03T22:04:54;12.27;;;8.53;;
10248;SDS011;5169;50.560;9.714;2023-03-03T22:07:20;14.63;;;9.40;;
10248;SDS011;5169;50.560;9.714;2023-03-03T22:09:48;15.23;;;9.07;;
10248;SDS011;5169;50.560;9.714;2023-03-03T22:12:20;12.30;;;8.23;;
10248;SDS011;5169;50.560;9.714;2023-03-03T22:14:45;17.60;;;10.10;;
10248;SDS011;5169;50.560;9.714;2023-03-03T22:17:11;13.17;;;8.77;;
10248;SDS011;5169;50.560;9.714;2023-03-03T22:19:37;14.87;;;9.23;;
10248;SDS011;5169;50.560;9.714;2023-03-03T22:22:09;14.30;;;9.30;;
10248;SDS011;5169;50.560;9.714;2023-03-03T22:24:43;14.30;;;8.83;;
10248;SDS011;5169;50.560;9.714;2023-03-03T22:27:08;14.23;;;8.73;;
10248;SDS011;5169;50.560;9.714;2023-03-03T22:29:36;12.90;;;9.07;;
10248;SDS011;5169;50.560;9.714;2023-03-03T22:32:01;12.80;;;8.37;;
10248;SDS011;5169;50.560;9.714;2023-03-03T22:34:33;13.93;;;8.97;;
10248;SDS011;5169;50.560;9.714;2023-03-03T22:36:59;14.40;;;8.97;;
10248;SDS011;5169;50.560;9.714;2023-03-03T22:39:24;13.50;;;9.00;;
10248;SDS011;5169;50.560;9.714;2023-03-03T22:41:50;14.07;;;9.10;;
10248;SDS011;5169;50.560;9.714;2023-03-03T22:44:21;11.97;;;8.33;;
10248;SDS011;5169;50.560;9.714;2023-03-03T22:46:49;12.13;;;8.10;;
10248;SDS011;5169;50.560;9.714;2023-03-03T22:49:25;12.00;;;7.77;;
10248;SDS011;5169;50.560;9.714;2023-03-03T22:51:59;11.73;;;8.60;;
10248;SDS011;5169;50.560;9.714;2023-03-03T22:54:26;12.43;;;8.93;;
10248;SDS011;5169;50.560;9.714;2023-03-03T22:56:58;13.93;;;8.53;;
10248;SDS011;5169;50.560;9.714;2023-03-03T22:59:23;12.90;;;8.20;;
10248;SDS011;5169;50.560;9.714;2023-03-03T23:01:55;14.00;;;8.33;;
10248;SDS011;5169;50.560;9.714;2023-03-03T23:04:20;13.47;;;8.50;;
10248;SDS011;5169;50.560;9.714;2023-03-03T23:06:46;13.33;;;9.03;;
10248;SDS011;5169;50.560;9.714;2023-03-03T23:09:13;13.17;;;8.27;;
10248;SDS011;5169;50.560;9.714;2023-03-03T23:11:43;15.57;;;9.17;;
10248;SDS011;5169;50.560;9.714;2023-03-03T23:14:09;13.33;;;8.87;;
10248;SDS011;5169;50.560;9.714;2023-03-03T23:16:34;15.90;;;9.40;;
10248;SDS011;5169;50.560;9.714;2023-03-03T23:19:00;16.10;;;9.43;;
10248;SDS011;5169;50.560;9.714;2023-03-03T23:21:26;15.70;;;9.27;;
10248;SDS011;5169;50.560;9.714;2023-03-03T23:23:55;15.57;;;9.53;;
10248;SDS011;5169;50.560;9.714;2023-03-03T23:26:20;16.63;;;9.77;;
10248;SDS011;5169;50.560;9.714;2023-03-03T23:28:49;14.87;;;9.63;;
10248;SDS011;5169;50.560;9.714;2023-03-03T23:31:14;14.83;;;10.10;;
10248;SDS011;5169;50.560;9.714;2023-03-03T23:33:43;15.57;;;9.73;;
10248;SDS011;5169;50.560;9.714;2023-03-03T23:36:11;15.47;;;9.77;;
10248;SDS011;5169;50.560;9.714;2023-03-03T23:38:39;14.63;;;9.30;;
10248;SDS011;5169;50.560;9.714;2023-03-03T23:41:11;16.50;;;9.77;;
10248;SDS011;5169;50.560;9.714;2023-03-03T23:43:37;15.00;;;9.33;;
10248;SDS011;5169;50.560;9.714;2023-03-03T23:46:02;17.37;;;10.20;;
10248;SDS011;5169;50.560;9.714;2023-03-03T23:48:37;19.17;;;10.90;;
10248;SDS011;5169;50.560;9.714;2023-03-03T23:51:02;16.20;;;10.23;;
10248;SDS011;5169;50.560;9.714;2023-03-03T23:53:31;15.83;;;9.70;;
10248;SDS011;5169;50.560;9.714;2023-03-03T23:55:59;18.43;;;10.43;;